createdAt,value
2018-09-19T00:00:28.501Z,18.00
2018-09-19T00:02:56.993Z,18.00
2018-09-19T00:05:25.563Z,18.10
2018-09-19T00:07:54.053Z,17.80
2018-09-19T00:10:22.621Z,17.70
2018-09-19T00:12:51.088Z,17.70
2018-09-19T00:15:19.581Z,17.60
2018-09-19T00:17:48.078Z,17.70
2018-09-19T00:20:16.713Z,17.60
2018-09-19T00:22:45.082Z,17.70
2018-09-19T00:25:13.592Z,17.60
2018-09-19T00:27:42.119Z,17.60
2018-09-19T00:30:10.701Z,17.60
2018-09-19T00:32:39.192Z,17.60
2018-09-19T00:35:07.711Z,17.70
2018-09-19T00:37:36.201Z,17.60
2018-09-19T00:40:04.740Z,17.60
2018-09-19T00:42:33.201Z,17.60
2018-09-19T00:45:01.640Z,17.70
2018-09-19T00:47:30.207Z,17.80
2018-09-19T00:49:58.693Z,17.60
2018-09-19T00:52:27.237Z,17.50
2018-09-19T00:54:55.782Z,17.50
2018-09-19T00:57:24.278Z,17.40
2018-09-19T00:59:52.772Z,17.40
2018-09-19T01:02:21.259Z,17.40
2018-09-19T01:04:49.744Z,17.30
2018-09-19T01:07:18.210Z,17.50
2018-09-19T01:09:46.681Z,17.60
2018-09-19T01:12:15.228Z,17.60
2018-09-19T01:14:43.682Z,17.50
2018-09-19T01:17:12.173Z,17.60
2018-09-19T01:19:40.673Z,17.60
2018-09-19T01:22:09.215Z,17.50
2018-09-19T01:24:37.685Z,17.40
2018-09-19T01:27:06.222Z,17.40
2018-09-19T01:29:34.705Z,17.50
2018-09-19T01:32:03.212Z,17.50
2018-09-19T01:34:31.689Z,17.50
2018-09-19T01:37:00.183Z,17.30
2018-09-19T01:39:28.712Z,17.10
2018-09-19T01:41:57.197Z,17.30
2018-09-19T01:44:25.684Z,17.40
2018-09-19T01:46:54.136Z,17.40
2018-09-19T01:49:22.660Z,17.20
2018-09-19T01:51:53.581Z,17.30
2018-09-19T01:54:22.652Z,17.20
2018-09-19T01:56:51.157Z,17.30
2018-09-19T01:59:19.634Z,17.30
2018-09-19T02:01:48.137Z,17.20
2018-09-19T02:04:16.758Z,17.20
2018-09-19T02:06:45.735Z,17.20
2018-09-19T02:09:14.332Z,17.30
2018-09-19T02:11:43.443Z,17.40
2018-09-19T02:14:12.863Z,17.40
2018-09-19T02:16:41.613Z,17.40
2018-09-19T02:19:10.164Z,17.40
2018-09-19T02:21:38.660Z,17.40
2018-09-19T02:24:07.156Z,17.40
2018-09-19T02:26:35.687Z,17.50
2018-09-19T02:29:04.243Z,17.40
2018-09-19T02:31:32.758Z,17.30
2018-09-19T02:34:01.900Z,17.40
2018-09-19T02:36:30.874Z,17.40
2018-09-19T02:38:59.742Z,17.30
2018-09-19T02:41:28.791Z,17.40
2018-09-19T02:43:57.338Z,17.40
2018-09-19T02:46:25.918Z,17.40
2018-09-19T02:48:54.917Z,17.40
2018-09-19T02:51:23.731Z,17.30
2018-09-19T02:53:52.664Z,17.30
2018-09-19T02:56:21.452Z,17.20
2018-09-19T02:58:50.580Z,17.20
2018-09-19T03:01:19.617Z,17.30
2018-09-19T03:03:48.406Z,17.30
2018-09-19T03:06:17.542Z,17.40
2018-09-19T03:08:46.373Z,17.40
2018-09-19T03:11:15.268Z,17.40
2018-09-19T03:13:44.396Z,17.40
2018-09-19T03:16:13.001Z,17.40
2018-09-19T03:18:41.619Z,17.40
2018-09-19T03:21:10.457Z,17.40
2018-09-19T03:23:39.490Z,17.40
2018-09-19T03:26:08.541Z,17.50
2018-09-19T03:28:37.040Z,17.50
2018-09-19T03:31:05.540Z,17.50
2018-09-19T03:33:34.020Z,17.50
2018-09-19T03:36:02.471Z,17.50
2018-09-19T03:38:30.975Z,17.60
2018-09-19T03:40:59.488Z,17.50
2018-09-19T03:43:27.940Z,17.50
2018-09-19T03:45:56.408Z,17.40
2018-09-19T03:48:24.884Z,17.40
2018-09-19T03:50:53.364Z,17.40
2018-09-19T03:53:21.829Z,17.40
2018-09-19T03:55:50.351Z,17.20
2018-09-19T03:58:18.940Z,17.30
2018-09-19T04:00:47.371Z,17.40
2018-09-19T04:03:15.822Z,17.20
2018-09-19T04:05:44.324Z,17.30
2018-09-19T04:08:12.860Z,17.30
2018-09-19T04:10:41.364Z,17.30
2018-09-19T04:13:09.824Z,17.00
2018-09-19T04:15:38.316Z,17.00
2018-09-19T04:18:06.829Z,17.10
2018-09-19T04:20:35.292Z,17.10
2018-09-19T04:23:03.802Z,17.20
2018-09-19T04:25:32.326Z,17.30
2018-09-19T04:28:00.836Z,17.40
2018-09-19T04:30:29.408Z,17.30
2018-09-19T04:32:57.966Z,17.30
2018-09-19T04:35:26.447Z,17.50
2018-09-19T04:37:54.928Z,17.50
2018-09-19T04:40:23.396Z,17.40
2018-09-19T04:42:51.873Z,17.50
2018-09-19T04:45:20.474Z,17.40
2018-09-19T04:47:48.891Z,17.50
2018-09-19T04:50:17.357Z,17.40
2018-09-19T04:52:45.838Z,17.30
2018-09-19T04:55:14.325Z,17.30
2018-09-19T04:57:42.827Z,17.20
2018-09-19T05:00:11.315Z,17.20
2018-09-19T05:02:39.826Z,17.30
2018-09-19T05:05:08.344Z,17.20
2018-09-19T05:07:36.816Z,17.00
2018-09-19T05:10:05.409Z,17.10
2018-09-19T05:12:33.907Z,17.20
2018-09-19T05:15:02.385Z,17.20
2018-09-19T05:17:31.461Z,17.20
2018-09-19T05:19:59.930Z,17.20
2018-09-19T05:22:28.381Z,17.20
2018-09-19T05:24:56.862Z,17.20
2018-09-19T05:27:25.313Z,17.30
2018-09-19T05:29:53.836Z,17.30
2018-09-19T05:32:22.380Z,17.30
2018-09-19T05:34:50.907Z,17.30
2018-09-19T05:37:19.370Z,17.30
2018-09-19T05:39:47.884Z,17.30
2018-09-19T05:42:16.451Z,17.40
2018-09-19T05:44:45.186Z,17.30
2018-09-19T05:47:13.673Z,17.20
2018-09-19T05:49:42.132Z,17.30
2018-09-19T05:52:10.637Z,17.40
2018-09-19T05:56:08.357Z,17.40
2018-09-19T05:58:36.851Z,17.30
2018-09-19T06:01:05.307Z,17.40
2018-09-19T06:03:33.857Z,17.40
2018-09-19T06:06:02.335Z,17.40
2018-09-19T06:08:30.855Z,17.10
2018-09-19T06:10:59.415Z,17.20
2018-09-19T06:13:28.044Z,17.20
2018-09-19T06:15:56.560Z,17.30
2018-09-19T06:18:25.103Z,17.40
2018-09-19T06:20:54.270Z,17.50
2018-09-19T06:23:22.768Z,17.50
2018-09-19T06:25:51.592Z,17.50
2018-09-19T06:28:20.386Z,17.50
2018-09-19T06:30:49.021Z,17.30
2018-09-19T06:33:17.652Z,17.30
2018-09-19T06:35:46.113Z,17.30
2018-09-19T06:38:14.606Z,17.40
2018-09-19T06:40:43.642Z,17.50
2018-09-19T06:43:12.106Z,17.40
2018-09-19T06:45:40.691Z,17.50
2018-09-19T06:48:09.224Z,17.50
2018-09-19T06:50:37.787Z,17.50
2018-09-19T06:53:06.334Z,17.60
2018-09-19T06:55:34.985Z,17.70
2018-09-19T06:58:03.607Z,17.90
2018-09-19T07:00:32.475Z,17.90
2018-09-19T07:03:01.064Z,18.00
2018-09-19T07:05:29.653Z,17.90
2018-09-19T07:07:58.292Z,18.00
2018-09-19T07:10:26.920Z,18.10
2018-09-19T07:12:55.395Z,18.10
2018-09-19T07:15:23.939Z,18.10
2018-09-19T07:17:52.512Z,18.20
2018-09-19T07:20:21.108Z,18.30
2018-09-19T07:22:49.720Z,18.40
2018-09-19T07:25:18.382Z,18.40
2018-09-19T07:27:46.893Z,18.40
2018-09-19T07:30:15.447Z,18.50
2018-09-19T07:32:44.202Z,18.60
2018-09-19T07:35:12.822Z,18.60
2018-09-19T07:37:41.394Z,18.70
2018-09-19T07:40:10.007Z,18.90
2018-09-19T07:42:38.488Z,19.10
2018-09-19T07:45:07.138Z,19.20
2018-09-19T07:47:35.782Z,19.20
2018-09-19T07:50:05.481Z,19.20
2018-09-19T07:52:34.039Z,19.30
2018-09-19T07:55:02.602Z,19.40
2018-09-19T07:57:31.641Z,19.50
2018-09-19T08:00:00.192Z,19.60
2018-09-19T08:02:28.702Z,19.80
2018-09-19T08:04:57.318Z,19.90
2018-09-19T08:07:25.967Z,20.10
2018-09-19T08:09:54.487Z,20.20
2018-09-19T08:12:22.996Z,20.30
2018-09-19T08:14:51.520Z,20.40
2018-09-19T08:17:20.313Z,20.60
2018-09-19T08:19:49.204Z,20.60
2018-09-19T08:22:18.042Z,20.50
2018-09-19T08:24:46.628Z,20.60
2018-09-19T08:27:15.200Z,20.60
2018-09-19T08:29:44.140Z,20.80
2018-09-19T08:32:12.758Z,20.80
2018-09-19T08:34:41.311Z,21.00
2018-09-19T08:37:10.029Z,21.10
2018-09-19T08:39:38.770Z,21.40
2018-09-19T08:42:07.478Z,21.40
2018-09-19T08:44:36.007Z,21.40
2018-09-19T08:47:04.607Z,21.50
2018-09-19T08:49:33.392Z,21.70
2018-09-19T08:52:02.214Z,21.60
2018-09-19T08:54:30.850Z,21.60
2018-09-19T08:56:59.465Z,21.50
2018-09-19T08:59:27.993Z,21.50
2018-09-19T09:01:56.568Z,22.00
2018-09-19T09:04:26.358Z,22.20
2018-09-19T09:06:54.948Z,22.30
2018-09-19T09:09:23.438Z,22.20
2018-09-19T09:11:52.025Z,22.30
2018-09-19T09:14:20.593Z,22.00
2018-09-19T09:16:49.120Z,22.20
2018-09-19T09:26:05.279Z,22.20
2018-09-19T09:28:33.850Z,22.70
2018-09-19T09:31:02.391Z,22.40
2018-09-19T09:33:30.938Z,22.10
2018-09-19T09:35:59.482Z,22.00
2018-09-19T09:38:28.144Z,22.20
2018-09-19T09:40:56.701Z,22.20
2018-09-19T09:43:25.228Z,21.80
2018-09-19T09:45:53.789Z,21.70
2018-09-19T09:48:22.355Z,21.80
2018-09-19T09:50:50.869Z,21.80
2018-09-19T09:53:19.813Z,22.00
2018-09-19T09:55:48.481Z,21.80
2018-09-19T09:58:16.948Z,21.80
2018-09-19T10:00:45.447Z,22.10
2018-09-19T10:03:13.921Z,22.20
2018-09-19T10:05:42.474Z,22.20
2018-09-19T10:08:10.972Z,22.10
2018-09-19T10:10:39.660Z,22.00
2018-09-19T10:13:08.246Z,21.90
2018-09-19T10:15:36.788Z,21.90
2018-09-19T10:18:05.427Z,22.00
2018-09-19T10:20:33.913Z,22.10
2018-09-19T10:23:02.435Z,22.10
2018-09-19T10:25:30.897Z,22.10
2018-09-19T10:27:59.369Z,22.10
2018-09-19T10:30:27.864Z,22.40
2018-09-19T10:32:56.394Z,22.50
2018-09-19T10:35:24.946Z,22.50
2018-09-19T10:37:53.464Z,22.40
2018-09-19T10:40:22.028Z,22.10
2018-09-19T10:42:50.535Z,22.00
2018-09-19T10:45:19.109Z,22.00
2018-09-19T10:47:47.743Z,22.20
2018-09-19T10:50:16.362Z,22.10
2018-09-19T10:52:44.856Z,22.00
2018-09-19T10:55:13.461Z,22.10
2018-09-19T10:57:42.356Z,21.90
2018-09-19T11:00:10.984Z,21.80
2018-09-19T11:02:39.541Z,22.10
2018-09-19T11:05:08.057Z,22.10
2018-09-19T11:07:36.564Z,22.10
2018-09-19T11:10:05.887Z,22.20
2018-09-19T11:12:34.514Z,22.20
2018-09-19T11:15:02.986Z,22.20
2018-09-19T11:17:31.542Z,22.30
2018-09-19T11:20:00.058Z,22.50
2018-09-19T11:22:28.617Z,22.60
2018-09-19T11:24:57.128Z,22.50
2018-09-19T11:27:25.757Z,22.90
2018-09-19T11:29:54.425Z,23.20
2018-09-19T11:32:22.965Z,23.20
2018-09-19T11:34:51.456Z,23.60
2018-09-19T11:37:20.002Z,23.90
2018-09-19T11:39:48.524Z,23.90
2018-09-19T11:42:17.026Z,24.10
2018-09-19T11:44:45.898Z,24.10
2018-09-19T11:47:14.449Z,23.90
2018-09-19T11:49:42.985Z,24.20
2018-09-19T11:52:11.531Z,24.30
2018-09-19T11:54:40.078Z,24.40
2018-09-19T11:57:08.637Z,24.70
2018-09-19T11:59:37.353Z,24.60
2018-09-19T12:02:06.137Z,24.50
2018-09-19T12:04:34.612Z,24.80
2018-09-19T12:07:03.184Z,25.10
2018-09-19T12:09:31.753Z,25.30
2018-09-19T12:12:00.367Z,24.90
2018-09-19T12:14:28.955Z,24.90
2018-09-19T12:16:57.578Z,25.20
2018-09-19T12:19:26.174Z,25.10
2018-09-19T12:21:54.664Z,25.10
2018-09-19T12:24:23.122Z,25.10
2018-09-19T12:26:51.638Z,25.30
2018-09-19T12:29:20.205Z,25.30
2018-09-19T12:31:49.001Z,25.00
2018-09-19T12:34:18.105Z,25.00
2018-09-19T12:36:46.637Z,25.10
2018-09-19T12:39:15.182Z,25.50
2018-09-19T12:41:43.838Z,25.30
2018-09-19T12:44:12.365Z,25.50
2018-09-19T12:46:40.875Z,25.60
2018-09-19T12:49:09.435Z,25.60
2018-09-19T12:51:37.965Z,25.70
2018-09-19T12:54:06.512Z,25.50
2018-09-19T12:56:35.133Z,25.50
2018-09-19T12:59:03.788Z,25.60
2018-09-19T13:01:32.382Z,25.10
2018-09-19T13:04:01.208Z,25.30
2018-09-19T13:06:29.802Z,25.70
2018-09-19T13:08:58.333Z,25.50
2018-09-19T13:11:26.908Z,25.60
2018-09-19T13:13:55.409Z,25.70
2018-09-19T13:16:23.958Z,25.60
2018-09-19T13:18:52.497Z,25.60
2018-09-19T13:21:21.054Z,25.70
2018-09-19T13:23:49.623Z,25.80
2018-09-19T13:26:18.164Z,25.60
2018-09-19T13:28:47.127Z,25.50
2018-09-19T13:31:15.632Z,25.30
2018-09-19T13:33:44.462Z,25.20
2018-09-19T13:36:13.023Z,25.30
2018-09-19T13:38:41.631Z,25.50
2018-09-19T13:41:10.294Z,25.50
2018-09-19T13:43:38.896Z,25.30
2018-09-19T13:46:07.925Z,25.50
2018-09-19T13:48:36.570Z,25.60
2018-09-19T13:51:13.435Z,25.80
2018-09-19T13:53:41.942Z,25.60
2018-09-19T13:56:10.501Z,25.50
2018-09-19T13:58:39.077Z,25.60
2018-09-19T14:01:07.620Z,25.60
2018-09-19T14:03:36.189Z,25.90
2018-09-19T14:06:04.791Z,25.60
2018-09-19T14:08:33.346Z,25.50
2018-09-19T14:11:01.925Z,25.30
2018-09-19T14:13:30.437Z,25.30
2018-09-19T14:15:58.952Z,25.30
2018-09-19T14:18:27.544Z,25.30
2018-09-19T14:20:56.096Z,25.30
2018-09-19T14:23:24.670Z,25.30
2018-09-19T14:25:53.222Z,25.30
2018-09-19T14:28:21.895Z,25.40
2018-09-19T14:30:50.510Z,25.50
2018-09-19T14:33:19.785Z,25.30
2018-09-19T14:35:50.582Z,25.00
2018-09-19T14:38:19.154Z,25.20
2018-09-19T14:40:47.763Z,25.40
2018-09-19T14:43:16.336Z,25.30
2018-09-19T14:45:45.189Z,25.50
2018-09-19T14:48:13.725Z,25.70
2018-09-19T14:50:42.256Z,25.70
2018-09-19T14:53:10.838Z,25.30
2018-09-19T14:55:39.441Z,25.20
2018-09-19T14:58:08.051Z,25.10
2018-09-19T15:00:36.688Z,25.10
2018-09-19T15:03:05.529Z,24.90
2018-09-19T15:05:34.041Z,24.70
2018-09-19T15:08:02.594Z,24.40
2018-09-19T15:10:31.558Z,24.50
2018-09-19T15:13:00.130Z,24.60
2018-09-19T15:15:28.732Z,24.50
2018-09-19T15:17:57.328Z,24.40
2018-09-19T15:20:25.939Z,24.50
2018-09-19T15:22:54.452Z,24.70
2018-09-19T15:25:23.049Z,24.50
2018-09-19T15:27:51.597Z,24.50
2018-09-19T15:30:20.214Z,24.30
2018-09-19T15:32:48.788Z,24.30
2018-09-19T15:35:17.314Z,24.30
2018-09-19T15:37:45.901Z,24.20
2018-09-19T15:40:14.840Z,24.20
2018-09-19T15:42:43.404Z,24.10
2018-09-19T15:45:12.018Z,24.00
2018-09-19T15:47:40.621Z,23.90
2018-09-19T15:50:09.293Z,23.80
2018-09-19T15:52:37.929Z,23.70
2018-09-19T15:55:06.463Z,23.50
2018-09-19T15:57:35.149Z,23.50
2018-09-19T16:00:03.744Z,23.50
2018-09-19T16:02:32.354Z,23.50
2018-09-19T16:05:00.837Z,23.60
2018-09-19T16:07:29.724Z,23.60
2018-09-19T16:09:58.608Z,23.60
2018-09-19T16:12:27.473Z,23.60
2018-09-19T16:14:55.961Z,23.60
2018-09-19T16:17:24.438Z,23.70
2018-09-19T16:19:52.946Z,23.60
2018-09-19T16:22:21.461Z,23.60
2018-09-19T16:24:49.951Z,23.50
2018-09-19T16:27:18.536Z,23.40
2018-09-19T16:29:47.088Z,23.40
2018-09-19T16:32:15.625Z,23.30
2018-09-19T16:34:44.158Z,23.30
2018-09-19T16:37:12.711Z,23.30
2018-09-19T16:39:41.757Z,23.30
2018-09-19T16:42:10.277Z,23.20
2018-09-19T16:44:38.924Z,23.10
2018-09-19T16:47:07.544Z,23.10
2018-09-19T16:49:36.151Z,23.20
2018-09-19T16:52:04.698Z,23.10
2018-09-19T16:54:33.241Z,23.00
2018-09-19T16:57:01.832Z,22.90
2018-09-19T16:59:30.381Z,22.90
2018-09-19T17:01:58.911Z,22.90
2018-09-19T17:04:27.500Z,22.90
2018-09-19T17:06:56.062Z,22.90
2018-09-19T17:09:24.541Z,22.90
2018-09-19T17:11:53.077Z,22.80
2018-09-19T17:14:21.668Z,22.80
2018-09-19T17:16:50.157Z,22.70
2018-09-19T17:19:18.651Z,22.80
2018-09-19T17:21:47.169Z,22.80
2018-09-19T17:24:16.080Z,22.80
2018-09-19T17:26:44.564Z,22.80
2018-09-19T17:29:13.037Z,22.90
2018-09-19T17:31:41.621Z,22.70
2018-09-19T17:34:10.115Z,22.60
2018-09-19T17:36:38.601Z,22.60
2018-09-19T17:39:10.001Z,22.60
2018-09-19T17:41:38.556Z,22.50
2018-09-19T17:44:07.287Z,22.40
2018-09-19T17:46:35.910Z,22.40
2018-09-19T17:49:04.462Z,22.40
2018-09-19T17:51:32.974Z,22.40
2018-09-19T17:54:01.531Z,22.30
2018-09-19T17:56:30.177Z,22.40
2018-09-19T17:58:58.775Z,22.30
2018-09-19T18:01:27.264Z,22.10
2018-09-19T18:10:42.553Z,22.00
2018-09-19T18:13:11.015Z,22.00
2018-09-19T18:15:40.118Z,22.10
2018-09-19T18:18:08.717Z,22.00
2018-09-19T18:20:37.230Z,21.90
2018-09-19T18:23:05.757Z,21.80
2018-09-19T18:25:34.293Z,21.70
2018-09-19T18:28:02.784Z,21.70
2018-09-19T18:30:31.344Z,21.70
2018-09-19T18:33:00.862Z,21.70
2018-09-19T18:35:29.382Z,21.70
2018-09-19T18:37:57.885Z,21.80
2018-09-19T18:40:26.498Z,21.90
2018-09-19T18:42:54.945Z,21.70
2018-09-19T18:45:23.467Z,21.80
2018-09-19T18:47:52.049Z,21.90
2018-09-19T18:50:20.546Z,21.90
2018-09-19T18:52:49.084Z,21.70
2018-09-19T18:55:17.980Z,21.70
2018-09-19T18:57:46.538Z,21.80
2018-09-19T19:00:15.087Z,21.90
2018-09-19T19:02:43.618Z,21.80
2018-09-19T19:05:12.241Z,21.70
2018-09-19T19:07:40.778Z,21.70
2018-09-19T19:10:09.338Z,21.40
2018-09-19T19:12:37.976Z,21.40
2018-09-19T19:15:06.606Z,21.40
2018-09-19T19:17:35.544Z,21.30
2018-09-19T19:20:04.083Z,21.40
2018-09-19T19:22:32.577Z,21.30
2018-09-19T19:25:01.109Z,21.20
2018-09-19T19:27:29.647Z,21.10
2018-09-19T19:29:58.169Z,20.90
2018-09-19T19:32:26.739Z,20.90
2018-09-19T19:34:55.346Z,20.90
2018-09-19T19:37:23.986Z,21.00
2018-09-19T19:39:52.556Z,21.00
2018-09-19T19:42:21.056Z,20.90
2018-09-19T19:44:50.059Z,20.80
2018-09-19T19:47:18.849Z,20.90
2018-09-19T19:49:47.435Z,20.80
2018-09-19T19:52:16.841Z,20.90
2018-09-19T19:54:45.362Z,20.80
2018-09-19T19:57:13.921Z,20.70
2018-09-19T19:59:42.383Z,20.80
2018-09-19T20:02:11.927Z,20.60
2018-09-19T20:04:40.494Z,20.70
2018-09-19T20:07:09.052Z,20.80
2018-09-19T20:09:37.582Z,20.80
2018-09-19T20:12:06.195Z,20.60
2018-09-19T20:14:35.137Z,20.70
2018-09-19T20:17:03.695Z,20.60
2018-09-19T20:19:32.290Z,20.60
2018-09-19T20:22:00.756Z,20.40
2018-09-19T20:24:29.265Z,20.40
2018-09-19T20:26:58.042Z,20.50
2018-09-19T20:29:26.623Z,20.60
2018-09-19T20:31:55.231Z,20.50
2018-09-19T20:34:23.774Z,20.60
2018-09-19T20:36:52.259Z,20.50
2018-09-19T20:39:20.802Z,20.40
2018-09-19T20:41:49.294Z,20.50
2018-09-19T20:44:17.856Z,20.60
2018-09-19T20:46:46.472Z,20.60
2018-09-19T20:49:14.963Z,20.60
2018-09-19T20:51:44.072Z,20.50
2018-09-19T20:54:12.581Z,20.50
2018-09-19T20:56:42.659Z,20.40
2018-09-19T20:59:11.171Z,20.40
2018-09-19T21:01:40.533Z,20.20
2018-09-19T21:04:09.670Z,20.30
2018-09-19T21:06:38.606Z,20.30
2018-09-19T21:09:07.727Z,20.20
2018-09-19T21:11:36.308Z,20.40
2018-09-19T21:14:04.792Z,20.20
2018-09-19T21:16:33.980Z,20.10
2018-09-19T21:19:02.560Z,20.10
2018-09-19T21:21:31.184Z,20.20
2018-09-19T21:23:59.855Z,20.20
2018-09-19T21:26:28.451Z,20.30
2018-09-19T21:28:57.111Z,20.20
2018-09-19T21:31:25.603Z,20.20
2018-09-19T21:33:54.164Z,20.20
2018-09-19T21:36:22.650Z,20.10
2018-09-19T21:38:51.137Z,20.20
2018-09-19T21:41:19.617Z,20.00
2018-09-19T21:43:48.169Z,19.90
2018-09-19T21:46:16.900Z,19.90
2018-09-19T21:48:45.344Z,19.90
2018-09-19T21:51:13.827Z,19.80
2018-09-19T21:53:42.296Z,19.80
2018-09-19T21:56:10.823Z,19.70
2018-09-19T21:58:39.358Z,19.70
2018-09-19T22:01:07.879Z,19.70
2018-09-19T22:03:37.354Z,19.70
2018-09-19T22:06:06.101Z,19.70
2018-09-19T22:08:34.761Z,19.70
2018-09-19T22:11:03.244Z,19.70
2018-09-19T22:13:31.760Z,19.60
2018-09-19T22:16:00.286Z,19.70
2018-09-19T22:18:28.781Z,19.60
2018-09-19T22:20:57.225Z,19.50
2018-09-19T22:23:25.805Z,19.30
2018-09-19T22:25:54.338Z,19.20
2018-09-19T22:28:23.314Z,19.20
2018-09-19T22:30:51.788Z,19.20
2018-09-19T22:33:20.305Z,19.30
2018-09-19T22:35:48.747Z,19.30
2018-09-19T22:38:17.225Z,19.30
2018-09-19T22:40:45.698Z,19.30
2018-09-19T22:43:14.249Z,19.40
2018-09-19T22:45:42.697Z,19.50
2018-09-19T22:48:11.188Z,19.40
2018-09-19T22:50:40.488Z,19.30
2018-09-19T22:53:09.023Z,19.30
2018-09-19T22:55:37.467Z,19.40
2018-09-19T22:58:06.027Z,19.30
2018-09-19T23:00:34.527Z,19.20
2018-09-19T23:03:03.045Z,19.20
2018-09-19T23:05:31.484Z,19.20
2018-09-19T23:08:00.018Z,19.20
2018-09-19T23:10:28.505Z,19.30
2018-09-19T23:12:57.042Z,19.20
2018-09-19T23:15:26.290Z,19.30
2018-09-19T23:17:54.793Z,19.20
2018-09-19T23:20:23.281Z,19.20
2018-09-19T23:22:51.749Z,19.30
2018-09-19T23:25:21.421Z,19.30
2018-09-19T23:27:49.868Z,19.30
2018-09-19T23:30:18.300Z,19.30
2018-09-19T23:32:46.798Z,19.30
2018-09-19T23:35:16.126Z,19.30
2018-09-19T23:37:44.608Z,19.30
2018-09-19T23:40:13.070Z,19.30
2018-09-19T23:42:41.566Z,19.30
2018-09-19T23:45:10.832Z,19.20
2018-09-19T23:47:39.390Z,19.30
2018-09-19T23:50:07.845Z,19.40
2018-09-19T23:52:36.378Z,19.30
2018-09-19T23:55:04.887Z,19.30
2018-09-19T23:57:33.751Z,19.20
